sensor_id;sensor_type;location;lat;lon;timestamp;P1;durP1;ratioP1;P2;durP2;ratioP2
13432;SDS011;6789;47.678;9.158;2022-11-25T00:02:45;9.37;;;4.77;;
13432;SDS011;6789;47.678;9.158;2022-11-25T00:07:37;9.47;;;4.73;;
13432;SDS011;6789;47.678;9.158;2022-11-25T00:12:29;6.73;;;4.07;;
13432;SDS011;6789;47.678;9.158;2022-11-25T00:17:21;10.17;;;4.40;;
13432;SDS011;6789;47.678;9.158;2022-11-25T00:22:14;7.90;;;4.87;;
13432;SDS011;6789;47.678;9.158;2022-11-25T00:27:05;13.17;;;4.80;;
13432;SDS011;6789;47.678;9.158;2022-11-25T00:31:57;7.27;;;4.10;;
13432;SDS011;6789;47.678;9.158;2022-11-25T00:36:49;10.00;;;3.97;;
13432;SDS011;6789;47.678;9.158;2022-11-25T00:41:41;10.30;;;4.70;;
13432;SDS011;6789;47.678;9.158;2022-11-25T00:46:53;7.73;;;4.70;;
13432;SDS011;6789;47.678;9.158;2022-11-25T00:51:45;10.63;;;5.17;;
13432;SDS011;6789;47.678;9.158;2022-11-25T00:56:37;11.37;;;5.20;;
13432;SDS011;6789;47.678;9.158;2022-11-25T01:01:29;8.03;;;5.10;;
13432;SDS011;6789;47.678;9.158;2022-11-25T01:06:21;9.47;;;5.23;;
13432;SDS011;6789;47.678;9.158;2022-11-25T01:11:14;9.47;;;5.87;;
13432;SDS011;6789;47.678;9.158;2022-11-25T01:16:13;12.00;;;5.90;;
13432;SDS011;6789;47.678;9.158;2022-11-25T01:21:10;15.40;;;5.90;;
13432;SDS011;6789;47.678;9.158;2022-11-25T01:26:09;13.33;;;5.57;;
13432;SDS011;6789;47.678;9.158;2022-11-25T01:31:05;14.50;;;6.17;;
13432;SDS011;6789;47.678;9.158;2022-11-25T01:36:05;16.80;;;6.57;;
13432;SDS011;6789;47.678;9.158;2022-11-25T01:41:03;15.03;;;6.27;;
13432;SDS011;6789;47.678;9.158;2022-11-25T01:51:20;13.80;;;5.90;;
13432;SDS011;6789;47.678;9.158;2022-11-25T01:56:19;9.33;;;5.67;;
13432;SDS011;6789;47.678;9.158;2022-11-25T02:01:11;14.63;;;6.23;;
13432;SDS011;6789;47.678;9.158;2022-11-25T02:06:10;13.47;;;6.77;;
13432;SDS011;6789;47.678;9.158;2022-11-25T02:11:13;13.13;;;6.57;;
13432;SDS011;6789;47.678;9.158;2022-11-25T02:16:07;12.37;;;6.13;;
13432;SDS011;6789;47.678;9.158;2022-11-25T02:20:59;9.70;;;6.13;;
13432;SDS011;6789;47.678;9.158;2022-11-25T02:25:51;11.77;;;6.80;;
13432;SDS011;6789;47.678;9.158;2022-11-25T02:30:44;13.57;;;6.53;;
13432;SDS011;6789;47.678;9.158;2022-11-25T02:35:38;16.10;;;6.93;;
13432;SDS011;6789;47.678;9.158;2022-11-25T02:40:33;9.83;;;6.10;;
13432;SDS011;6789;47.678;9.158;2022-11-25T02:46:07;11.67;;;6.20;;
13432;SDS011;6789;47.678;9.158;2022-11-25T02:51:13;15.23;;;5.90;;
13432;SDS011;6789;47.678;9.158;2022-11-25T02:56:08;12.80;;;6.13;;
13432;SDS011;6789;47.678;9.158;2022-11-25T03:01:02;11.07;;;5.97;;
13432;SDS011;6789;47.678;9.158;2022-11-25T03:05:54;12.40;;;6.00;;
13432;SDS011;6789;47.678;9.158;2022-11-25T03:10:46;14.30;;;7.10;;
13432;SDS011;6789;47.678;9.158;2022-11-25T03:15:38;15.70;;;6.93;;
13432;SDS011;6789;47.678;9.158;2022-11-25T03:20:30;17.37;;;8.03;;
13432;SDS011;6789;47.678;9.158;2022-11-25T03:25:22;11.37;;;6.77;;
13432;SDS011;6789;47.678;9.158;2022-11-25T03:30:15;16.43;;;6.67;;
13432;SDS011;6789;47.678;9.158;2022-11-25T03:35:10;12.87;;;6.93;;
13432;SDS011;6789;47.678;9.158;2022-11-25T03:40:04;14.23;;;7.10;;
13432;SDS011;6789;47.678;9.158;2022-11-25T03:44:57;14.30;;;7.00;;
13432;SDS011;6789;47.678;9.158;2022-11-25T03:49:49;15.77;;;6.67;;
13432;SDS011;6789;47.678;9.158;2022-11-25T03:54:40;12.37;;;6.20;;
13432;SDS011;6789;47.678;9.158;2022-11-25T03:59:32;11.33;;;6.13;;
13432;SDS011;6789;47.678;9.158;2022-11-25T04:04:24;15.30;;;6.80;;
13432;SDS011;6789;47.678;9.158;2022-11-25T04:09:16;11.97;;;6.40;;
13432;SDS011;6789;47.678;9.158;2022-11-25T04:14:08;12.63;;;7.17;;
13432;SDS011;6789;47.678;9.158;2022-11-25T04:19:00;15.93;;;6.10;;
13432;SDS011;6789;47.678;9.158;2022-11-25T04:23:51;12.83;;;6.50;;
13432;SDS011;6789;47.678;9.158;2022-11-25T04:28:43;11.70;;;6.33;;
13432;SDS011;6789;47.678;9.158;2022-11-25T04:33:35;12.20;;;7.10;;
13432;SDS011;6789;47.678;9.158;2022-11-25T04:38:26;12.10;;;6.73;;
13432;SDS011;6789;47.678;9.158;2022-11-25T04:43:18;13.63;;;6.73;;
13432;SDS011;6789;47.678;9.158;2022-11-25T04:48:10;13.07;;;6.60;;
13432;SDS011;6789;47.678;9.158;2022-11-25T04:53:01;13.47;;;6.80;;
13432;SDS011;6789;47.678;9.158;2022-11-25T04:57:53;11.63;;;6.80;;
13432;SDS011;6789;47.678;9.158;2022-11-25T05:02:45;14.30;;;7.67;;
13432;SDS011;6789;47.678;9.158;2022-11-25T05:07:38;11.57;;;7.13;;
13432;SDS011;6789;47.678;9.158;2022-11-25T05:12:30;17.07;;;7.27;;
13432;SDS011;6789;47.678;9.158;2022-11-25T05:17:24;14.57;;;6.77;;
13432;SDS011;6789;47.678;9.158;2022-11-25T05:22:20;11.10;;;6.87;;
13432;SDS011;6789;47.678;9.158;2022-11-25T05:27:29;11.13;;;7.07;;
13432;SDS011;6789;47.678;9.158;2022-11-25T05:32:35;11.97;;;6.70;;
13432;SDS011;6789;47.678;9.158;2022-11-25T05:37:41;11.73;;;7.37;;
13432;SDS011;6789;47.678;9.158;2022-11-25T05:42:48;12.33;;;6.87;;
13432;SDS011;6789;47.678;9.158;2022-11-25T05:47:54;10.63;;;6.77;;
13432;SDS011;6789;47.678;9.158;2022-11-25T05:52:50;13.50;;;7.70;;
13432;SDS011;6789;47.678;9.158;2022-11-25T05:57:43;14.67;;;7.00;;
13432;SDS011;6789;47.678;9.158;2022-11-25T06:02:35;13.07;;;7.40;;
13432;SDS011;6789;47.678;9.158;2022-11-25T06:07:28;13.73;;;7.17;;
13432;SDS011;6789;47.678;9.158;2022-11-25T06:12:20;16.07;;;7.10;;
13432;SDS011;6789;47.678;9.158;2022-11-25T06:17:14;16.70;;;7.43;;
13432;SDS011;6789;47.678;9.158;2022-11-25T06:22:06;12.13;;;5.77;;
13432;SDS011;6789;47.678;9.158;2022-11-25T06:27:06;12.60;;;6.80;;
13432;SDS011;6789;47.678;9.158;2022-11-25T06:32:00;12.37;;;8.40;;
13432;SDS011;6789;47.678;9.158;2022-11-25T06:36:53;15.87;;;8.03;;
13432;SDS011;6789;47.678;9.158;2022-11-25T06:41:59;17.27;;;8.53;;
13432;SDS011;6789;47.678;9.158;2022-11-25T06:46:51;17.67;;;10.00;;
13432;SDS011;6789;47.678;9.158;2022-11-25T06:51:44;13.33;;;9.07;;
13432;SDS011;6789;47.678;9.158;2022-11-25T06:56:50;17.30;;;10.10;;
13432;SDS011;6789;47.678;9.158;2022-11-25T07:01:57;15.93;;;9.37;;
13432;SDS011;6789;47.678;9.158;2022-11-25T07:07:03;13.00;;;8.53;;
13432;SDS011;6789;47.678;9.158;2022-11-25T07:11:58;13.00;;;8.57;;
13432;SDS011;6789;47.678;9.158;2022-11-25T07:16:52;12.67;;;7.93;;
13432;SDS011;6789;47.678;9.158;2022-11-25T07:21:44;14.33;;;7.53;;
13432;SDS011;6789;47.678;9.158;2022-11-25T07:26:39;11.73;;;7.30;;
13432;SDS011;6789;47.678;9.158;2022-11-25T07:31:38;11.40;;;7.33;;
13432;SDS011;6789;47.678;9.158;2022-11-25T07:36:48;10.00;;;5.80;;
13432;SDS011;6789;47.678;9.158;2022-11-25T07:41:48;13.53;;;7.07;;
13432;SDS011;6789;47.678;9.158;2022-11-25T07:47:16;13.03;;;6.67;;
13432;SDS011;6789;47.678;9.158;2022-11-25T07:52:09;12.40;;;7.07;;
13432;SDS011;6789;47.678;9.158;2022-11-25T07:57:15;20.43;;;12.97;;
13432;SDS011;6789;47.678;9.158;2022-11-25T08:02:38;19.67;;;8.50;;
13432;SDS011;6789;47.678;9.158;2022-11-25T08:07:44;15.73;;;9.30;;
13432;SDS011;6789;47.678;9.158;2022-11-25T08:12:39;18.63;;;8.97;;
13432;SDS011;6789;47.678;9.158;2022-11-25T08:17:45;21.30;;;10.03;;
13432;SDS011;6789;47.678;9.158;2022-11-25T08:22:45;21.47;;;10.30;;
13432;SDS011;6789;47.678;9.158;2022-11-25T08:27:51;15.73;;;9.23;;
13432;SDS011;6789;47.678;9.158;2022-11-25T08:32:44;18.87;;;9.37;;
13432;SDS011;6789;47.678;9.158;2022-11-25T08:37:50;18.13;;;9.43;;
13432;SDS011;6789;47.678;9.158;2022-11-25T08:42:56;18.00;;;9.90;;
13432;SDS011;6789;47.678;9.158;2022-11-25T08:48:02;16.77;;;9.27;;
13432;SDS011;6789;47.678;9.158;2022-11-25T08:53:08;15.07;;;8.63;;
13432;SDS011;6789;47.678;9.158;2022-11-25T08:58:14;21.00;;;9.80;;
13432;SDS011;6789;47.678;9.158;2022-11-25T09:03:20;19.97;;;9.87;;
13432;SDS011;6789;47.678;9.158;2022-11-25T09:08:26;17.23;;;8.97;;
13432;SDS011;6789;47.678;9.158;2022-11-25T09:13:20;17.10;;;9.37;;
13432;SDS011;6789;47.678;9.158;2022-11-25T09:18:26;18.93;;;10.70;;
13432;SDS011;6789;47.678;9.158;2022-11-25T09:23:21;15.30;;;9.37;;
13432;SDS011;6789;47.678;9.158;2022-11-25T09:28:28;17.10;;;9.17;;
13432;SDS011;6789;47.678;9.158;2022-11-25T09:33:35;16.33;;;9.40;;
13432;SDS011;6789;47.678;9.158;2022-11-25T09:38:41;17.73;;;9.97;;
13432;SDS011;6789;47.678;9.158;2022-11-25T09:43:58;14.43;;;8.87;;
13432;SDS011;6789;47.678;9.158;2022-11-25T09:55:18;16.10;;;8.30;;
13432;SDS011;6789;47.678;9.158;2022-11-25T10:00:33;15.17;;;8.70;;
13432;SDS011;6789;47.678;9.158;2022-11-25T10:11:11;15.40;;;8.87;;
13432;SDS011;6789;47.678;9.158;2022-11-25T10:27:44;13.17;;;7.93;;
13432;SDS011;6789;47.678;9.158;2022-11-25T10:33:16;13.57;;;8.53;;
13432;SDS011;6789;47.678;9.158;2022-11-25T10:38:34;14.43;;;8.50;;
13432;SDS011;6789;47.678;9.158;2022-11-25T10:44:25;14.53;;;8.50;;
13432;SDS011;6789;47.678;9.158;2022-11-25T10:49:37;13.17;;;8.00;;
13432;SDS011;6789;47.678;9.158;2022-11-25T11:00:30;16.43;;;8.67;;
13432;SDS011;6789;47.678;9.158;2022-11-25T11:05:30;12.43;;;7.83;;
13432;SDS011;6789;47.678;9.158;2022-11-25T11:10:37;14.97;;;8.10;;
13432;SDS011;6789;47.678;9.158;2022-11-25T11:15:45;17.73;;;7.73;;
13432;SDS011;6789;47.678;9.158;2022-11-25T11:20:53;13.87;;;6.80;;
13432;SDS011;6789;47.678;9.158;2022-11-25T11:26:04;15.57;;;7.57;;
13432;SDS011;6789;47.678;9.158;2022-11-25T11:31:07;12.67;;;7.23;;
13432;SDS011;6789;47.678;9.158;2022-11-25T11:47:29;14.17;;;5.83;;
13432;SDS011;6789;47.678;9.158;2022-11-25T11:58:52;8.00;;;4.57;;
13432;SDS011;6789;47.678;9.158;2022-11-25T12:04:35;6.87;;;4.33;;
13432;SDS011;6789;47.678;9.158;2022-11-25T12:10:02;10.97;;;5.03;;
13432;SDS011;6789;47.678;9.158;2022-11-25T12:21:17;9.37;;;4.43;;
13432;SDS011;6789;47.678;9.158;2022-11-25T12:26:31;8.00;;;3.90;;
13432;SDS011;6789;47.678;9.158;2022-11-25T12:31:57;6.07;;;3.90;;
13432;SDS011;6789;47.678;9.158;2022-11-25T12:49:19;6.73;;;3.20;;
13432;SDS011;6789;47.678;9.158;2022-11-25T12:54:53;5.00;;;3.40;;
13432;SDS011;6789;47.678;9.158;2022-11-25T13:00:36;9.13;;;3.80;;
13432;SDS011;6789;47.678;9.158;2022-11-25T13:17:09;7.10;;;3.30;;
13432;SDS011;6789;47.678;9.158;2022-11-25T13:32:46;5.47;;;2.33;;
13432;SDS011;6789;47.678;9.158;2022-11-25T13:37:54;5.80;;;2.13;;
13432;SDS011;6789;47.678;9.158;2022-11-25T13:42:54;5.77;;;2.30;;
13432;SDS011;6789;47.678;9.158;2022-11-25T13:48:12;4.83;;;2.33;;
13432;SDS011;6789;47.678;9.158;2022-11-25T13:53:29;7.60;;;2.80;;
13432;SDS011;6789;47.678;9.158;2022-11-25T13:59:07;5.27;;;2.30;;
13432;SDS011;6789;47.678;9.158;2022-11-25T14:04:16;5.67;;;2.13;;
13432;SDS011;6789;47.678;9.158;2022-11-25T14:09:59;6.40;;;2.27;;
13432;SDS011;6789;47.678;9.158;2022-11-25T14:27:36;7.13;;;3.13;;
13432;SDS011;6789;47.678;9.158;2022-11-25T14:38:05;5.37;;;3.00;;
13432;SDS011;6789;47.678;9.158;2022-11-25T14:43:38;5.80;;;2.67;;
13432;SDS011;6789;47.678;9.158;2022-11-25T14:48:37;7.40;;;3.43;;
13432;SDS011;6789;47.678;9.158;2022-11-25T14:53:44;6.13;;;2.57;;
13432;SDS011;6789;47.678;9.158;2022-11-25T14:58:53;6.00;;;2.97;;
13432;SDS011;6789;47.678;9.158;2022-11-25T15:09:18;4.97;;;2.53;;
13432;SDS011;6789;47.678;9.158;2022-11-25T15:14:46;5.33;;;2.43;;
13432;SDS011;6789;47.678;9.158;2022-11-25T15:20:11;6.33;;;2.10;;
13432;SDS011;6789;47.678;9.158;2022-11-25T15:25:22;5.30;;;2.10;;
13432;SDS011;6789;47.678;9.158;2022-11-25T15:30:28;4.90;;;2.40;;
13432;SDS011;6789;47.678;9.158;2022-11-25T15:35:34;5.57;;;2.43;;
13432;SDS011;6789;47.678;9.158;2022-11-25T15:40:40;4.13;;;2.43;;
13432;SDS011;6789;47.678;9.158;2022-11-25T15:45:48;3.90;;;2.57;;
13432;SDS011;6789;47.678;9.158;2022-11-25T15:51:02;4.90;;;2.70;;
13432;SDS011;6789;47.678;9.158;2022-11-25T15:56:28;5.30;;;2.80;;
13432;SDS011;6789;47.678;9.158;2022-11-25T16:01:42;6.87;;;2.70;;
13432;SDS011;6789;47.678;9.158;2022-11-25T16:06:52;5.93;;;3.03;;
13432;SDS011;6789;47.678;9.158;2022-11-25T16:12:04;9.13;;;3.30;;
13432;SDS011;6789;47.678;9.158;2022-11-25T16:17:11;4.83;;;3.20;;
13432;SDS011;6789;47.678;9.158;2022-11-25T16:22:18;7.30;;;3.57;;
13432;SDS011;6789;47.678;9.158;2022-11-25T16:27:25;7.13;;;3.57;;
13432;SDS011;6789;47.678;9.158;2022-11-25T16:32:33;6.47;;;3.17;;
13432;SDS011;6789;47.678;9.158;2022-11-25T16:37:39;5.57;;;3.50;;
13432;SDS011;6789;47.678;9.158;2022-11-25T16:42:45;9.87;;;5.50;;
13432;SDS011;6789;47.678;9.158;2022-11-25T16:47:54;8.53;;;5.33;;
13432;SDS011;6789;47.678;9.158;2022-11-25T16:53:00;11.83;;;6.17;;
13432;SDS011;6789;47.678;9.158;2022-11-25T16:58:08;10.90;;;5.77;;
13432;SDS011;6789;47.678;9.158;2022-11-25T17:03:28;8.53;;;4.93;;
13432;SDS011;6789;47.678;9.158;2022-11-25T17:08:33;11.10;;;5.90;;
13432;SDS011;6789;47.678;9.158;2022-11-25T17:13:40;12.97;;;6.00;;
13432;SDS011;6789;47.678;9.158;2022-11-25T17:18:39;12.40;;;6.83;;
13432;SDS011;6789;47.678;9.158;2022-11-25T17:23:45;14.70;;;8.40;;
13432;SDS011;6789;47.678;9.158;2022-11-25T17:28:53;12.47;;;6.87;;
13432;SDS011;6789;47.678;9.158;2022-11-25T17:34:05;11.57;;;6.00;;
13432;SDS011;6789;47.678;9.158;2022-11-25T17:39:11;8.73;;;5.03;;
13432;SDS011;6789;47.678;9.158;2022-11-25T17:44:23;9.50;;;6.10;;
13432;SDS011;6789;47.678;9.158;2022-11-25T17:49:33;13.27;;;6.17;;
13432;SDS011;6789;47.678;9.158;2022-11-25T17:54:39;13.50;;;7.47;;
13432;SDS011;6789;47.678;9.158;2022-11-25T17:59:46;11.73;;;6.70;;
13432;SDS011;6789;47.678;9.158;2022-11-25T18:04:53;13.30;;;7.63;;
13432;SDS011;6789;47.678;9.158;2022-11-25T18:10:00;13.77;;;7.67;;
13432;SDS011;6789;47.678;9.158;2022-11-25T18:15:06;14.00;;;6.30;;
13432;SDS011;6789;47.678;9.158;2022-11-25T18:20:21;16.30;;;9.40;;
13432;SDS011;6789;47.678;9.158;2022-11-25T18:25:30;18.47;;;10.27;;
13432;SDS011;6789;47.678;9.158;2022-11-25T18:30:38;22.60;;;11.90;;
13432;SDS011;6789;47.678;9.158;2022-11-25T18:35:45;21.93;;;11.80;;
13432;SDS011;6789;47.678;9.158;2022-11-25T18:40:52;19.77;;;10.97;;
13432;SDS011;6789;47.678;9.158;2022-11-25T18:45:58;15.83;;;10.20;;
13432;SDS011;6789;47.678;9.158;2022-11-25T18:51:05;17.63;;;9.97;;
13432;SDS011;6789;47.678;9.158;2022-11-25T18:56:15;18.87;;;11.27;;
13432;SDS011;6789;47.678;9.158;2022-11-25T19:01:21;18.17;;;9.50;;
13432;SDS011;6789;47.678;9.158;2022-11-25T19:06:27;19.13;;;9.67;;
13432;SDS011;6789;47.678;9.158;2022-11-25T19:11:31;17.33;;;10.23;;
13432;SDS011;6789;47.678;9.158;2022-11-25T19:17:00;14.37;;;8.63;;
13432;SDS011;6789;47.678;9.158;2022-11-25T19:22:11;13.37;;;7.50;;
13432;SDS011;6789;47.678;9.158;2022-11-25T19:27:22;15.17;;;7.20;;
13432;SDS011;6789;47.678;9.158;2022-11-25T19:32:29;11.17;;;7.00;;
13432;SDS011;6789;47.678;9.158;2022-11-25T19:37:39;12.37;;;8.77;;
13432;SDS011;6789;47.678;9.158;2022-11-25T19:42:45;16.97;;;11.07;;
13432;SDS011;6789;47.678;9.158;2022-11-25T19:47:52;17.90;;;10.33;;
13432;SDS011;6789;47.678;9.158;2022-11-25T19:52:58;17.47;;;9.63;;
13432;SDS011;6789;47.678;9.158;2022-11-25T19:58:04;18.53;;;9.77;;
13432;SDS011;6789;47.678;9.158;2022-11-25T20:03:20;20.67;;;11.23;;
13432;SDS011;6789;47.678;9.158;2022-11-25T20:08:31;18.10;;;9.90;;
13432;SDS011;6789;47.678;9.158;2022-11-25T20:13:36;12.73;;;8.03;;
13432;SDS011;6789;47.678;9.158;2022-11-25T20:18:43;12.83;;;8.67;;
13432;SDS011;6789;47.678;9.158;2022-11-25T20:24:01;16.17;;;8.60;;
13432;SDS011;6789;47.678;9.158;2022-11-25T20:29:15;15.20;;;8.63;;
13432;SDS011;6789;47.678;9.158;2022-11-25T20:34:24;14.43;;;7.63;;
13432;SDS011;6789;47.678;9.158;2022-11-25T20:39:32;13.53;;;8.13;;
13432;SDS011;6789;47.678;9.158;2022-11-25T20:44:38;13.83;;;8.30;;
13432;SDS011;6789;47.678;9.158;2022-11-25T20:49:44;14.50;;;8.33;;
13432;SDS011;6789;47.678;9.158;2022-11-25T20:54:52;13.33;;;7.90;;
13432;SDS011;6789;47.678;9.158;2022-11-25T20:59:58;11.80;;;7.07;;
13432;SDS011;6789;47.678;9.158;2022-11-25T21:04:58;14.90;;;7.30;;
13432;SDS011;6789;47.678;9.158;2022-11-25T21:10:37;12.57;;;7.53;;
13432;SDS011;6789;47.678;9.158;2022-11-25T21:15:39;12.60;;;7.07;;
13432;SDS011;6789;47.678;9.158;2022-11-25T21:20:45;14.27;;;7.43;;
13432;SDS011;6789;47.678;9.158;2022-11-25T21:25:56;15.03;;;8.43;;
13432;SDS011;6789;47.678;9.158;2022-11-25T21:31:15;16.07;;;8.53;;
13432;SDS011;6789;47.678;9.158;2022-11-25T21:36:26;14.93;;;8.60;;
13432;SDS011;6789;47.678;9.158;2022-11-25T21:41:34;17.40;;;8.53;;
13432;SDS011;6789;47.678;9.158;2022-11-25T21:46:40;9.70;;;6.40;;
13432;SDS011;6789;47.678;9.158;2022-11-25T21:51:46;9.90;;;6.17;;
13432;SDS011;6789;47.678;9.158;2022-11-25T21:56:53;15.43;;;6.43;;
13432;SDS011;6789;47.678;9.158;2022-11-25T22:01:59;11.90;;;6.33;;
13432;SDS011;6789;47.678;9.158;2022-11-25T22:07:04;11.60;;;6.50;;
13432;SDS011;6789;47.678;9.158;2022-11-25T22:12:27;10.87;;;6.00;;
13432;SDS011;6789;47.678;9.158;2022-11-25T22:17:34;12.37;;;6.67;;
13432;SDS011;6789;47.678;9.158;2022-11-25T22:22:42;14.13;;;7.77;;
13432;SDS011;6789;47.678;9.158;2022-11-25T22:27:58;13.50;;;8.70;;
13432;SDS011;6789;47.678;9.158;2022-11-25T22:33:07;19.47;;;8.23;;
13432;SDS011;6789;47.678;9.158;2022-11-25T22:38:16;12.13;;;7.20;;
13432;SDS011;6789;47.678;9.158;2022-11-25T22:43:27;15.57;;;8.53;;
13432;SDS011;6789;47.678;9.158;2022-11-25T22:48:41;16.40;;;8.73;;
13432;SDS011;6789;47.678;9.158;2022-11-25T22:59:19;16.30;;;9.87;;
13432;SDS011;6789;47.678;9.158;2022-11-25T23:04:25;13.93;;;8.27;;
13432;SDS011;6789;47.678;9.158;2022-11-25T23:09:31;12.30;;;7.77;;
13432;SDS011;6789;47.678;9.158;2022-11-25T23:14:37;15.57;;;8.17;;
13432;SDS011;6789;47.678;9.158;2022-11-25T23:19:46;18.13;;;8.70;;
13432;SDS011;6789;47.678;9.158;2022-11-25T23:24:53;15.83;;;8.80;;
13432;SDS011;6789;47.678;9.158;2022-11-25T23:30:00;15.17;;;6.97;;
13432;SDS011;6789;47.678;9.158;2022-11-25T23:35:17;14.97;;;7.30;;
13432;SDS011;6789;47.678;9.158;2022-11-25T23:40:21;12.23;;;7.07;;
13432;SDS011;6789;47.678;9.158;2022-11-25T23:45:33;11.80;;;6.47;;
13432;SDS011;6789;47.678;9.158;2022-11-25T23:50:40;11.60;;;6.37;;
13432;SDS011;6789;47.678;9.158;2022-11-25T23:55:49;10.43;;;5.87;;
